createdAt,value
2022-09-15T00:02:12.970Z,16.91
2022-09-15T00:04:44.807Z,16.86
2022-09-15T00:07:16.707Z,16.85
2022-09-15T00:09:48.736Z,16.83
2022-09-15T00:12:20.661Z,16.79
2022-09-15T00:14:52.934Z,16.77
2022-09-15T00:17:24.693Z,16.76
2022-09-15T00:19:58.379Z,16.74
2022-09-15T00:22:30.574Z,16.75
2022-09-15T00:25:02.612Z,16.81
2022-09-15T00:27:34.577Z,16.83
2022-09-15T00:30:07.755Z,16.88
2022-09-15T00:32:39.632Z,16.92
2022-09-15T00:35:12.110Z,16.95
2022-09-15T00:37:44.230Z,16.98
2022-09-15T00:40:17.082Z,17.02
2022-09-15T00:42:49.060Z,17.03
2022-09-15T00:45:21.075Z,17.05
2022-09-15T00:47:53.028Z,17.03
2022-09-15T00:50:24.968Z,16.98
2022-09-15T00:52:58.755Z,16.97
2022-09-15T00:55:34.391Z,16.95
2022-09-15T00:58:37.143Z,16.96
2022-09-15T01:01:09.160Z,16.97
2022-09-15T01:03:41.497Z,16.99
2022-09-15T01:06:20.426Z,17.02
2022-09-15T01:09:17.353Z,17.02
2022-09-15T01:11:49.453Z,16.99
2022-09-15T01:14:21.622Z,16.97
2022-09-15T01:17:04.084Z,16.99
2022-09-15T01:19:56.274Z,17.01
2022-09-15T01:22:36.344Z,17.04
2022-09-15T01:25:09.964Z,17.07
2022-09-15T01:28:24.261Z,17.08
2022-09-15T01:31:21.348Z,17.09
2022-09-15T01:34:14.802Z,17.05
2022-09-15T01:36:54.981Z,17.05
2022-09-15T01:39:36.472Z,16.94
2022-09-15T01:42:11.791Z,16.90
2022-09-15T01:45:06.897Z,16.87
2022-09-15T01:47:39.941Z,16.84
2022-09-15T01:50:31.462Z,16.79
2022-09-15T01:53:08.806Z,16.74
2022-09-15T01:55:44.508Z,16.72
2022-09-15T01:58:16.582Z,16.66
2022-09-15T02:00:59.506Z,16.65
2022-09-15T02:03:37.870Z,16.63
2022-09-15T02:06:36.079Z,16.64
2022-09-15T02:09:35.810Z,16.64
2022-09-15T02:12:12.374Z,16.63
2022-09-15T02:14:55.537Z,16.64
2022-09-15T02:17:29.477Z,16.64
2022-09-15T02:20:20.178Z,16.62
2022-09-15T02:22:57.231Z,16.60
2022-09-15T02:25:32.760Z,16.55
2022-09-15T02:28:07.497Z,16.52
2022-09-15T02:30:42.007Z,16.51
2022-09-15T02:33:19.774Z,16.50
2022-09-15T02:35:52.332Z,16.49
2022-09-15T02:38:28.938Z,16.39
2022-09-15T02:41:01.204Z,16.24
2022-09-15T02:43:33.556Z,16.06
2022-09-15T02:46:05.834Z,15.92
2022-09-15T02:48:37.959Z,15.86
2022-09-15T02:51:10.207Z,15.82
2022-09-15T02:53:44.545Z,15.76
2022-09-15T02:56:17.041Z,15.76
2022-09-15T02:58:48.933Z,15.76
2022-09-15T03:01:21.119Z,15.81
2022-09-15T03:03:53.302Z,15.86
2022-09-15T03:06:25.597Z,15.90
2022-09-15T03:08:58.806Z,15.92
2022-09-15T03:11:31.064Z,15.93
2022-09-15T03:14:05.956Z,15.93
2022-09-15T03:16:38.049Z,15.93
2022-09-15T03:19:10.197Z,15.93
2022-09-15T03:21:42.093Z,15.93
2022-09-15T03:24:15.449Z,15.93
2022-09-15T03:26:48.126Z,15.95
2022-09-15T03:29:20.027Z,15.99
2022-09-15T03:31:52.791Z,16.00
2022-09-15T03:34:24.799Z,16.03
2022-09-15T03:36:56.776Z,16.09
2022-09-15T03:39:28.693Z,16.11
2022-09-15T03:42:00.891Z,16.13
2022-09-15T03:44:32.962Z,16.15
2022-09-15T03:47:07.944Z,16.13
2022-09-15T03:49:39.969Z,16.11
2022-09-15T03:52:12.242Z,16.09
2022-09-15T03:54:44.401Z,16.11
2022-09-15T03:57:16.388Z,16.16
2022-09-15T03:59:48.399Z,16.21
2022-09-15T04:02:20.317Z,16.24
2022-09-15T04:04:52.296Z,16.22
2022-09-15T04:07:25.014Z,16.20
2022-09-15T04:09:59.513Z,16.17
2022-09-15T04:12:32.491Z,16.15
2022-09-15T04:15:04.897Z,16.16
2022-09-15T04:17:36.874Z,16.16
2022-09-15T04:20:09.891Z,16.16
2022-09-15T04:22:41.872Z,16.15
2022-09-15T04:25:14.103Z,16.15
2022-09-15T04:27:46.270Z,16.14
2022-09-15T04:30:18.108Z,16.13
2022-09-15T04:32:51.650Z,16.12
2022-09-15T04:35:23.905Z,16.13
2022-09-15T04:37:56.339Z,16.11
2022-09-15T04:40:28.371Z,16.12
2022-09-15T04:43:00.431Z,16.14
2022-09-15T04:45:33.703Z,16.18
2022-09-15T04:48:05.800Z,16.19
2022-09-15T04:50:40.542Z,16.21
2022-09-15T04:53:12.651Z,16.17
2022-09-15T04:55:44.754Z,16.17
2022-09-15T04:58:16.809Z,16.16
2022-09-15T05:00:48.910Z,16.18
2022-09-15T05:03:20.864Z,16.21
2022-09-15T05:05:52.728Z,16.21
2022-09-15T05:08:24.620Z,16.22
2022-09-15T05:11:03.354Z,16.23
2022-09-15T05:13:36.172Z,16.22
2022-09-15T05:16:13.187Z,16.22
2022-09-15T05:18:46.835Z,16.20
2022-09-15T05:21:21.517Z,16.18
2022-09-15T05:23:59.022Z,16.20
2022-09-15T05:26:30.923Z,16.22
2022-09-15T05:29:03.077Z,16.22
2022-09-15T05:31:35.152Z,16.18
2022-09-15T05:34:07.220Z,16.16
2022-09-15T05:36:39.147Z,16.13
2022-09-15T05:39:11.145Z,16.10
2022-09-15T05:41:43.050Z,16.10
2022-09-15T05:44:15.101Z,16.10
2022-09-15T05:46:48.129Z,16.11
2022-09-15T05:49:20.045Z,16.12
2022-09-15T05:51:52.239Z,16.15
2022-09-15T05:54:24.486Z,16.16
2022-09-15T05:56:56.547Z,16.17
2022-09-15T05:59:28.675Z,16.14
2022-09-15T06:02:00.787Z,16.12
2022-09-15T06:04:34.135Z,16.10
2022-09-15T06:07:05.984Z,16.12
2022-09-15T06:09:38.388Z,16.14
2022-09-15T06:12:10.371Z,16.14
2022-09-15T06:14:44.509Z,16.13
2022-09-15T06:17:20.062Z,16.11
2022-09-15T06:19:52.060Z,16.08
2022-09-15T06:22:24.295Z,16.08
2022-09-15T06:24:56.229Z,16.09
2022-09-15T06:27:28.140Z,16.13
2022-09-15T06:30:00.075Z,16.16
2022-09-15T06:32:32.048Z,16.21
2022-09-15T06:35:07.171Z,16.24
2022-09-15T06:37:39.015Z,16.30
2022-09-15T06:40:11.505Z,16.36
2022-09-15T06:42:43.791Z,16.43
2022-09-15T06:45:16.480Z,16.49
2022-09-15T06:48:02.077Z,16.50
2022-09-15T06:50:40.187Z,16.51
2022-09-15T06:53:12.027Z,16.54
2022-09-15T06:55:44.065Z,16.56
2022-09-15T06:58:15.948Z,16.60
2022-09-15T07:00:47.989Z,16.65
2022-09-15T07:03:20.042Z,16.65
2022-09-15T07:05:52.087Z,16.67
2022-09-15T07:08:24.154Z,16.72
2022-09-15T07:10:56.454Z,16.78
2022-09-15T07:13:28.718Z,16.85
2022-09-15T07:16:03.721Z,16.81
2022-09-15T07:18:40.938Z,16.84
2022-09-15T07:21:20.398Z,16.84
2022-09-15T07:23:52.935Z,16.87
2022-09-15T07:26:28.283Z,16.97
2022-09-15T07:29:06.282Z,17.08
2022-09-15T07:31:39.156Z,17.14
2022-09-15T07:34:11.175Z,17.23
2022-09-15T07:36:43.008Z,17.28
2022-09-15T07:39:14.829Z,17.30
2022-09-15T07:41:46.837Z,17.32
2022-09-15T07:44:18.766Z,17.30
2022-09-15T07:46:50.743Z,17.25
2022-09-15T07:49:22.694Z,17.18
2022-09-15T07:51:54.585Z,17.09
2022-09-15T07:54:26.461Z,17.02
2022-09-15T07:56:58.349Z,16.97
2022-09-15T07:59:30.978Z,16.97
2022-09-15T08:02:02.930Z,17.07
2022-09-15T08:04:34.963Z,17.34
2022-09-15T08:07:06.825Z,17.49
2022-09-15T08:09:39.954Z,17.59
2022-09-15T08:12:12.278Z,17.66
2022-09-15T08:14:44.242Z,17.64
2022-09-15T08:17:16.134Z,17.69
2022-09-15T08:19:47.968Z,17.70
2022-09-15T08:22:19.885Z,17.78
2022-09-15T08:24:52.002Z,17.83
2022-09-15T08:27:23.943Z,17.85
2022-09-15T08:29:55.806Z,17.86
2022-09-15T08:32:27.676Z,17.91
2022-09-15T08:34:59.507Z,17.95
2022-09-15T08:37:31.467Z,18.01
2022-09-15T08:40:03.632Z,18.04
2022-09-15T08:42:35.733Z,18.10
2022-09-15T08:45:20.783Z,18.15
2022-09-15T08:47:58.596Z,18.17
2022-09-15T08:50:42.081Z,18.25
2022-09-15T08:53:36.034Z,18.33
2022-09-15T08:56:17.171Z,18.36
2022-09-15T08:58:49.080Z,18.42
2022-09-15T09:01:37.836Z,18.41
2022-09-15T09:04:31.398Z,18.46
2022-09-15T09:07:17.898Z,18.47
2022-09-15T09:09:57.400Z,18.53
2022-09-15T09:12:47.184Z,18.62
2022-09-15T09:15:47.557Z,18.72
2022-09-15T09:18:53.146Z,18.83
2022-09-15T09:21:31.880Z,18.96
2022-09-15T09:24:13.104Z,19.02
2022-09-15T09:26:49.562Z,19.14
2022-09-15T09:29:33.466Z,19.20
2022-09-15T09:32:17.662Z,19.24
2022-09-15T09:34:56.133Z,19.29
2022-09-15T09:37:28.302Z,19.34
2022-09-15T09:40:00.658Z,19.39
2022-09-15T09:42:37.036Z,19.38
2022-09-15T09:45:12.796Z,19.27
2022-09-15T09:47:46.198Z,19.16
2022-09-15T09:50:43.076Z,19.00
2022-09-15T09:53:26.246Z,18.88
2022-09-15T09:56:22.710Z,18.79
2022-09-15T09:58:54.699Z,18.77
2022-09-15T10:01:26.673Z,18.72
2022-09-15T10:04:19.160Z,18.69
2022-09-15T10:06:51.065Z,18.69
2022-09-15T10:09:23.026Z,18.64
2022-09-15T10:11:59.054Z,18.62
2022-09-15T10:14:41.577Z,18.54
2022-09-15T10:17:18.703Z,18.50
2022-09-15T10:19:52.763Z,18.46
2022-09-15T10:22:30.183Z,18.47
2022-09-15T10:25:12.087Z,18.58
2022-09-15T10:27:43.982Z,18.70
2022-09-15T10:30:19.076Z,18.87
2022-09-15T10:32:51.439Z,19.01
2022-09-15T10:35:23.212Z,19.13
2022-09-15T10:38:12.811Z,19.16
2022-09-15T10:41:01.184Z,19.19
2022-09-15T10:43:50.741Z,19.18
2022-09-15T10:46:27.350Z,19.20
2022-09-15T10:49:22.090Z,19.18
2022-09-15T10:52:16.033Z,19.18
2022-09-15T10:55:02.911Z,19.15
2022-09-15T10:58:00.675Z,19.13
2022-09-15T11:00:43.801Z,19.07
2022-09-15T11:03:30.949Z,19.09
2022-09-15T11:06:26.613Z,19.16
2022-09-15T11:09:13.375Z,19.18
2022-09-15T11:12:17.319Z,19.24
2022-09-15T11:15:15.191Z,19.40
2022-09-15T11:18:10.406Z,19.60
2022-09-15T11:21:19.430Z,19.73
2022-09-15T11:24:31.685Z,19.90
2022-09-15T11:27:12.662Z,20.43
2022-09-15T11:30:02.739Z,20.88
2022-09-15T11:32:59.184Z,21.15
2022-09-15T11:35:49.161Z,21.21
2022-09-15T11:38:27.085Z,21.13
2022-09-15T11:41:24.982Z,20.99
2022-09-15T11:44:16.076Z,20.81
2022-09-15T11:47:02.235Z,20.72
2022-09-15T11:49:40.017Z,21.24
2022-09-15T11:52:24.462Z,22.35
2022-09-15T11:55:12.942Z,23.76
2022-09-15T11:57:48.947Z,25.04
2022-09-15T12:00:21.150Z,25.79
2022-09-15T12:03:17.838Z,26.36
2022-09-15T12:05:54.673Z,26.50
2022-09-15T12:08:33.920Z,26.12
2022-09-15T12:11:12.903Z,25.62
2022-09-15T12:13:45.560Z,25.13
2022-09-15T12:16:17.645Z,24.73
2022-09-15T12:18:54.823Z,24.38
2022-09-15T12:21:55.587Z,23.94
2022-09-15T12:24:39.398Z,23.35
2022-09-15T12:27:16.635Z,22.85
2022-09-15T12:29:56.454Z,22.29
2022-09-15T12:32:35.061Z,21.95
2022-09-15T12:35:16.411Z,21.84
2022-09-15T12:37:56.126Z,21.89
2022-09-15T12:40:33.047Z,22.04
2022-09-15T12:43:10.931Z,22.30
2022-09-15T12:45:52.641Z,22.50
2022-09-15T12:48:28.172Z,22.73
2022-09-15T12:51:02.358Z,22.96
2022-09-15T12:53:37.886Z,23.44
2022-09-15T12:56:22.013Z,24.39
2022-09-15T12:58:54.756Z,25.61
2022-09-15T13:01:26.455Z,26.58
2022-09-15T13:03:58.913Z,27.01
2022-09-15T13:06:35.704Z,27.44
2022-09-15T13:09:26.618Z,27.45
2022-09-15T13:11:59.595Z,27.14
2022-09-15T13:14:38.296Z,26.54
2022-09-15T13:17:16.642Z,25.92
2022-09-15T13:19:51.649Z,25.33
2022-09-15T13:22:30.240Z,24.68
2022-09-15T13:25:14.688Z,24.25
2022-09-15T13:27:54.375Z,23.75
2022-09-15T13:30:36.003Z,23.37
2022-09-15T13:40:16.679Z,21.89
2022-09-15T13:43:07.210Z,21.33
2022-09-15T13:46:15.278Z,20.97
2022-09-15T13:48:55.356Z,20.61
2022-09-15T13:51:28.950Z,20.34
2022-09-15T13:54:06.570Z,20.24
2022-09-15T13:56:39.575Z,20.23
2022-09-15T13:59:17.425Z,20.37
2022-09-15T14:01:50.437Z,20.54
2022-09-15T14:04:24.448Z,20.73
2022-09-15T14:07:00.973Z,20.87
2022-09-15T14:09:41.934Z,20.98
2022-09-15T14:12:15.153Z,21.14
2022-09-15T14:14:51.496Z,21.12
2022-09-15T14:17:26.045Z,21.11
2022-09-15T14:20:00.171Z,21.05
2022-09-15T14:22:33.975Z,20.94
2022-09-15T14:25:08.716Z,20.84
2022-09-15T14:27:44.847Z,20.70
2022-09-15T14:30:25.576Z,20.69
2022-09-15T14:33:01.369Z,20.64
2022-09-15T14:35:36.253Z,20.67
2022-09-15T14:38:21.654Z,20.72
2022-09-15T14:40:56.822Z,20.75
2022-09-15T14:43:39.455Z,20.73
2022-09-15T14:46:12.043Z,20.67
2022-09-15T14:48:46.944Z,20.64
2022-09-15T14:51:21.880Z,20.54
2022-09-15T14:53:55.849Z,20.48
2022-09-15T14:56:32.641Z,20.38
2022-09-15T14:59:07.981Z,20.22
2022-09-15T15:01:43.023Z,20.08
2022-09-15T15:04:39.198Z,19.88
2022-09-15T15:07:22.697Z,19.78
2022-09-15T15:10:02.516Z,19.61
2022-09-15T15:12:42.412Z,19.46
2022-09-15T15:15:16.293Z,19.27
2022-09-15T15:17:50.992Z,19.10
2022-09-15T15:20:26.979Z,19.01
2022-09-15T15:23:22.533Z,18.95
2022-09-15T15:26:24.562Z,18.90
2022-09-15T15:28:56.858Z,18.89
2022-09-15T15:31:29.530Z,18.83
2022-09-15T15:34:06.695Z,18.75
2022-09-15T15:36:38.560Z,18.67
2022-09-15T15:39:24.848Z,18.59
2022-09-15T15:42:05.139Z,18.55
2022-09-15T15:44:37.026Z,18.48
2022-09-15T15:47:31.031Z,18.47
2022-09-15T15:50:14.810Z,18.54
2022-09-15T15:52:48.663Z,18.49
2022-09-15T15:55:26.733Z,18.56
2022-09-15T15:57:59.020Z,18.55
2022-09-15T16:00:44.161Z,18.47
2022-09-15T16:03:17.174Z,18.38
2022-09-15T16:05:52.228Z,18.27
2022-09-15T16:08:28.337Z,18.20
2022-09-15T16:11:02.146Z,18.10
2022-09-15T16:13:34.495Z,18.02
2022-09-15T16:16:20.453Z,17.93
2022-09-15T16:18:53.021Z,17.84
2022-09-15T16:21:36.699Z,17.79
2022-09-15T16:24:15.581Z,17.71
2022-09-15T16:26:50.626Z,17.67
2022-09-15T16:29:29.887Z,17.68
2022-09-15T16:32:03.172Z,17.70
2022-09-15T16:34:35.174Z,17.69
2022-09-15T16:37:08.585Z,17.69
2022-09-15T16:39:52.094Z,17.69
2022-09-15T16:42:24.300Z,17.71
2022-09-15T16:44:56.566Z,17.72
2022-09-15T16:47:28.458Z,17.73
2022-09-15T16:50:00.352Z,17.74
2022-09-15T16:52:32.375Z,17.79
2022-09-15T16:55:20.346Z,17.79
2022-09-15T16:57:52.330Z,17.83
2022-09-15T17:00:24.418Z,17.84
2022-09-15T17:02:57.301Z,17.87
2022-09-15T17:05:39.079Z,17.88
2022-09-15T17:08:12.251Z,17.92
2022-09-15T17:10:44.506Z,17.95
2022-09-15T17:13:23.961Z,17.93
2022-09-15T17:16:00.232Z,17.93
2022-09-15T17:18:32.420Z,17.88
2022-09-15T17:21:04.970Z,17.83
2022-09-15T17:23:38.771Z,17.78
2022-09-15T17:26:13.863Z,17.75
2022-09-15T17:28:45.846Z,17.73
2022-09-15T17:31:20.897Z,17.71
2022-09-15T17:33:53.155Z,17.70
2022-09-15T17:36:25.321Z,17.66
2022-09-15T17:38:57.573Z,17.64
2022-09-15T17:41:30.536Z,17.60
2022-09-15T17:44:02.768Z,17.58
2022-09-15T17:46:35.097Z,17.57
2022-09-15T17:49:07.034Z,17.55
2022-09-15T17:51:39.325Z,17.56
2022-09-15T17:54:11.548Z,17.53
2022-09-15T17:56:43.761Z,17.50
2022-09-15T17:59:16.345Z,17.46
2022-09-15T18:01:48.729Z,17.45
2022-09-15T18:04:20.713Z,17.41
2022-09-15T18:06:54.004Z,17.41
2022-09-15T18:09:26.054Z,17.40
2022-09-15T18:11:58.234Z,17.35
2022-09-15T18:14:31.217Z,17.31
2022-09-15T18:17:03.170Z,17.30
2022-09-15T18:19:35.335Z,17.29
2022-09-15T18:22:07.546Z,17.26
2022-09-15T18:24:39.746Z,17.25
2022-09-15T18:27:11.859Z,17.21
2022-09-15T18:29:44.257Z,17.09
2022-09-15T18:32:16.387Z,17.03
2022-09-15T18:34:49.082Z,16.93
2022-09-15T18:37:21.367Z,16.86
2022-09-15T18:39:53.384Z,16.83
2022-09-15T18:42:28.450Z,16.82
2022-09-15T18:45:09.348Z,16.77
2022-09-15T18:47:42.562Z,16.71
2022-09-15T18:50:15.609Z,16.67
2022-09-15T18:52:47.918Z,16.65
2022-09-15T18:55:22.064Z,16.63
2022-09-15T18:57:53.963Z,16.61
2022-09-15T19:00:28.678Z,16.59
2022-09-15T19:03:02.550Z,16.61
2022-09-15T19:05:34.453Z,16.62
2022-09-15T19:08:08.499Z,16.63
2022-09-15T19:10:43.846Z,16.68
2022-09-15T19:13:16.030Z,16.73
2022-09-15T19:15:50.302Z,16.63
2022-09-15T19:18:24.837Z,16.42
2022-09-15T19:21:04.987Z,16.23
2022-09-15T19:23:37.033Z,16.11
2022-09-15T19:26:13.651Z,15.97
2022-09-15T19:28:46.215Z,15.84
2022-09-15T19:31:18.330Z,15.71
2022-09-15T19:33:50.196Z,15.60
2022-09-15T19:36:29.531Z,15.55
2022-09-15T19:39:03.384Z,15.52
2022-09-15T19:41:35.523Z,15.55
2022-09-15T19:44:10.590Z,15.59
2022-09-15T19:46:43.060Z,15.63
2022-09-15T19:49:15.006Z,15.66
2022-09-15T19:51:52.881Z,15.66
2022-09-15T19:54:29.088Z,15.65
2022-09-15T19:57:01.918Z,15.64
2022-09-15T19:59:34.007Z,15.64
2022-09-15T20:02:06.055Z,15.61
2022-09-15T20:04:39.016Z,15.59
2022-09-15T20:07:11.070Z,15.56
2022-09-15T20:09:43.101Z,15.48
2022-09-15T20:12:15.183Z,15.40
2022-09-15T20:14:47.163Z,15.38
2022-09-15T20:17:19.256Z,15.33
2022-09-15T20:19:51.315Z,15.32
2022-09-15T20:22:23.660Z,15.33
2022-09-15T20:24:56.130Z,15.27
2022-09-15T20:27:28.135Z,15.21
2022-09-15T20:30:00.039Z,15.17
2022-09-15T20:32:33.960Z,15.11
2022-09-15T20:35:06.076Z,15.02
2022-09-15T20:37:37.987Z,14.99
2022-09-15T20:40:10.027Z,14.95
2022-09-15T20:42:42.538Z,14.91
2022-09-15T20:45:15.346Z,14.86
2022-09-15T20:47:47.304Z,14.80
2022-09-15T20:50:19.276Z,14.78
2022-09-15T20:52:51.145Z,14.71
2022-09-15T20:55:25.506Z,14.67
2022-09-15T20:57:57.399Z,14.60
2022-09-15T21:00:33.211Z,14.57
2022-09-15T21:03:05.934Z,14.55
2022-09-15T21:05:37.859Z,14.52
2022-09-15T21:08:11.049Z,14.51
2022-09-15T21:10:44.788Z,14.47
2022-09-15T21:13:16.599Z,14.49
2022-09-15T21:15:59.520Z,14.50
2022-09-15T21:18:35.635Z,14.51
2022-09-15T21:21:07.827Z,14.55
2022-09-15T21:23:42.031Z,14.59
2022-09-15T21:26:16.144Z,14.56
2022-09-15T21:28:48.726Z,14.43
2022-09-15T21:31:26.251Z,14.32
2022-09-15T21:33:58.759Z,14.19
2022-09-15T21:36:31.668Z,14.14
2022-09-15T21:39:03.568Z,14.09
2022-09-15T21:41:35.931Z,14.00
2022-09-15T21:44:09.358Z,13.95
2022-09-15T21:46:41.181Z,13.95
2022-09-15T21:49:13.146Z,13.92
2022-09-15T21:51:45.328Z,13.93
2022-09-15T21:54:18.403Z,13.95
2022-09-15T21:56:50.610Z,13.96
2022-09-15T21:59:22.498Z,13.96
2022-09-15T22:01:54.414Z,13.98
2022-09-15T22:04:26.319Z,14.01
2022-09-15T22:06:58.185Z,14.01
2022-09-15T22:09:30.202Z,14.04
2022-09-15T22:12:02.162Z,14.07
2022-09-15T22:14:34.045Z,14.11
2022-09-15T22:17:05.997Z,14.16
2022-09-15T22:19:38.062Z,14.20
2022-09-15T22:22:10.025Z,14.20
2022-09-15T22:24:41.943Z,14.18
2022-09-15T22:27:13.799Z,14.19
2022-09-15T22:29:45.669Z,14.15
2022-09-15T22:32:17.581Z,14.12
2022-09-15T22:34:49.528Z,14.13
2022-09-15T22:37:21.421Z,14.18
2022-09-15T22:40:01.348Z,14.23
2022-09-15T22:42:33.323Z,14.16
2022-09-15T22:45:07.430Z,14.19
2022-09-15T22:47:39.588Z,14.19
2022-09-15T22:50:12.010Z,14.16
2022-09-15T22:52:44.047Z,14.14
2022-09-15T22:55:16.500Z,14.09
2022-09-15T22:57:48.936Z,14.06
2022-09-15T23:00:21.087Z,14.03
2022-09-15T23:02:53.058Z,13.97
2022-09-15T23:05:25.404Z,13.96
2022-09-15T23:07:57.404Z,13.91
2022-09-15T23:10:30.558Z,13.90
2022-09-15T23:13:02.395Z,13.91
2022-09-15T23:15:34.417Z,13.91
2022-09-15T23:18:06.383Z,13.92
2022-09-15T23:20:39.775Z,13.90
2022-09-15T23:23:11.734Z,13.93
2022-09-15T23:25:43.633Z,13.93
2022-09-15T23:28:15.476Z,13.93
2022-09-15T23:30:54.498Z,13.90
2022-09-15T23:33:28.847Z,13.89
2022-09-15T23:36:05.552Z,13.88
2022-09-15T23:38:41.683Z,13.88
2022-09-15T23:41:15.166Z,13.88
2022-09-15T23:43:47.354Z,13.87
2022-09-15T23:46:19.233Z,13.83
2022-09-15T23:48:51.209Z,13.82
2022-09-15T23:51:23.336Z,13.79
2022-09-15T23:53:55.286Z,13.73
2022-09-15T23:56:27.324Z,13.73
2022-09-15T23:58:59.371Z,13.73
